createdAt,value
2018-06-27T00:01:05.062Z,17.60
2018-06-27T00:03:32.232Z,17.60
2018-06-27T00:05:59.409Z,17.60
2018-06-27T00:08:26.577Z,17.50
2018-06-27T00:10:53.765Z,17.40
2018-06-27T00:13:20.969Z,17.40
2018-06-27T00:15:48.181Z,17.30
2018-06-27T00:18:15.388Z,17.40
2018-06-27T00:20:42.586Z,17.40
2018-06-27T00:23:09.753Z,17.30
2018-06-27T00:25:36.929Z,17.30
2018-06-27T00:28:04.250Z,17.20
2018-06-27T00:30:31.430Z,17.20
2018-06-27T00:32:58.602Z,17.30
2018-06-27T00:35:25.796Z,17.30
2018-06-27T00:37:52.989Z,17.30
2018-06-27T00:40:20.169Z,17.30
2018-06-27T00:42:47.340Z,17.30
2018-06-27T00:45:14.493Z,17.30
2018-06-27T00:47:48.510Z,17.30
2018-06-27T00:50:15.682Z,17.20
2018-06-27T00:55:16.753Z,17.10
2018-06-27T00:57:43.929Z,17.10
2018-06-27T01:00:11.102Z,17.20
2018-06-27T01:02:38.283Z,17.10
2018-06-27T01:05:05.610Z,17.10
2018-06-27T01:07:32.827Z,17.00
2018-06-27T01:09:59.980Z,17.00
2018-06-27T01:12:27.153Z,17.00
2018-06-27T01:14:54.337Z,17.00
2018-06-27T01:17:21.567Z,17.00
2018-06-27T01:19:48.743Z,16.90
2018-06-27T01:22:15.941Z,16.80
2018-06-27T01:24:43.124Z,16.80
2018-06-27T01:27:10.304Z,16.80
2018-06-27T01:29:37.474Z,16.80
2018-06-27T01:32:04.725Z,16.80
2018-06-27T01:34:31.904Z,16.80
2018-06-27T01:36:59.093Z,16.80
2018-06-27T01:39:26.256Z,16.70
2018-06-27T01:41:53.476Z,16.70
2018-06-27T01:44:20.644Z,16.70
2018-06-27T01:46:47.826Z,16.60
2018-06-27T01:49:14.992Z,16.60
2018-06-27T01:51:42.221Z,16.60
2018-06-27T01:54:09.408Z,16.50
2018-06-27T01:56:36.572Z,16.50
2018-06-27T01:59:03.786Z,16.40
2018-06-27T02:01:30.968Z,16.50
2018-06-27T02:03:58.155Z,16.50
2018-06-27T02:06:25.350Z,16.40
2018-06-27T02:08:52.547Z,16.40
2018-06-27T02:11:19.733Z,16.30
2018-06-27T02:13:46.940Z,16.40
2018-06-27T02:16:14.118Z,16.40
2018-06-27T02:18:41.304Z,16.40
2018-06-27T02:21:08.485Z,16.40
2018-06-27T02:23:35.666Z,16.30
2018-06-27T02:28:36.745Z,16.40
2018-06-27T02:31:04.037Z,16.40
2018-06-27T02:33:31.217Z,16.30
2018-06-27T02:36:05.229Z,16.40
2018-06-27T02:38:32.490Z,16.40
2018-06-27T02:40:59.675Z,16.30
2018-06-27T02:43:26.857Z,16.30
2018-06-27T02:45:54.120Z,16.30
2018-06-27T02:48:21.378Z,16.30
2018-06-27T02:50:48.561Z,16.30
2018-06-27T02:53:15.729Z,16.20
2018-06-27T02:55:42.942Z,16.10
2018-06-27T02:58:10.180Z,16.30
2018-06-27T03:00:37.386Z,16.20
2018-06-27T03:03:04.803Z,16.20
2018-06-27T03:05:31.978Z,16.20
2018-06-27T03:07:59.142Z,16.20
2018-06-27T03:10:26.322Z,16.10
2018-06-27T03:12:53.485Z,16.10
2018-06-27T03:15:20.674Z,16.10
2018-06-27T03:17:47.909Z,16.00
2018-06-27T03:20:15.354Z,16.00
2018-06-27T03:25:10.090Z,15.90
2018-06-27T03:27:37.396Z,15.90
2018-06-27T03:30:04.838Z,15.90
2018-06-27T03:32:32.014Z,15.90
2018-06-27T03:34:59.196Z,15.90
2018-06-27T03:37:26.488Z,16.00
2018-06-27T03:39:53.680Z,16.00
2018-06-27T03:42:20.860Z,16.20
2018-06-27T03:44:48.262Z,16.30
2018-06-27T03:47:15.485Z,16.40
2018-06-27T03:49:42.757Z,16.50
2018-06-27T03:52:09.968Z,16.50
2018-06-27T03:54:37.192Z,16.50
2018-06-27T03:57:04.375Z,16.50
2018-06-27T03:59:31.557Z,16.50
2018-06-27T04:01:58.723Z,16.50
2018-06-27T04:04:25.903Z,16.50
2018-06-27T04:06:53.054Z,16.50
2018-06-27T04:09:20.232Z,16.40
2018-06-27T04:11:47.412Z,16.40
2018-06-27T04:14:14.571Z,16.40
2018-06-27T04:16:41.759Z,16.50
2018-06-27T04:19:08.931Z,16.40
2018-06-27T04:21:36.105Z,16.40
2018-06-27T04:24:03.304Z,16.60
2018-06-27T04:26:30.471Z,16.50
2018-06-27T04:28:57.651Z,16.50
2018-06-27T04:31:24.820Z,16.60
2018-06-27T04:33:52.001Z,16.60
2018-06-27T04:36:19.169Z,16.60
2018-06-27T04:38:46.323Z,16.60
2018-06-27T04:41:13.503Z,16.60
2018-06-27T04:43:40.655Z,16.70
2018-06-27T04:46:07.832Z,16.70
2018-06-27T04:48:34.987Z,16.70
2018-06-27T04:51:02.161Z,16.60
2018-06-27T04:53:29.308Z,16.50
2018-06-27T04:55:56.468Z,16.60
2018-06-27T04:58:23.656Z,16.60
2018-06-27T05:00:50.839Z,16.70
2018-06-27T05:03:17.995Z,16.70
2018-06-27T05:08:12.339Z,16.80
2018-06-27T05:10:39.500Z,16.90
2018-06-27T05:13:06.690Z,16.80
2018-06-27T05:15:33.857Z,16.80
2018-06-27T05:18:01.028Z,16.80
2018-06-27T05:20:28.208Z,16.90
2018-06-27T05:22:55.367Z,17.00
2018-06-27T05:25:22.550Z,17.10
2018-06-27T05:27:49.694Z,17.10
2018-06-27T05:30:16.879Z,17.10
2018-06-27T05:32:44.044Z,17.10
2018-06-27T05:35:11.206Z,17.20
2018-06-27T05:37:38.390Z,17.30
2018-06-27T05:40:05.612Z,17.30
2018-06-27T05:42:32.797Z,17.40
2018-06-27T05:44:59.948Z,17.40
2018-06-27T05:47:27.129Z,17.40
2018-06-27T05:49:54.284Z,17.40
2018-06-27T05:52:21.441Z,17.50
2018-06-27T05:54:53.255Z,17.50
2018-06-27T05:57:20.503Z,17.60
2018-06-27T05:59:47.824Z,17.60
2018-06-27T06:02:15.005Z,17.60
2018-06-27T06:04:42.203Z,17.70
2018-06-27T06:07:09.724Z,17.70
2018-06-27T06:09:36.948Z,17.80
2018-06-27T06:12:04.119Z,17.90
2018-06-27T06:14:31.289Z,17.90
2018-06-27T06:16:58.568Z,17.90
2018-06-27T06:19:25.723Z,17.90
2018-06-27T06:24:20.179Z,18.00
2018-06-27T06:26:47.335Z,18.20
2018-06-27T06:29:14.488Z,18.30
2018-06-27T06:31:41.738Z,18.20
2018-06-27T06:34:08.899Z,18.30
2018-06-27T06:36:36.217Z,18.40
2018-06-27T06:39:06.048Z,18.50
2018-06-27T06:41:33.219Z,18.60
2018-06-27T06:44:00.564Z,18.80
2018-06-27T06:46:27.735Z,18.80
2018-06-27T06:48:55.676Z,18.90
2018-06-27T06:51:22.831Z,18.90
2018-06-27T06:53:50.032Z,18.90
2018-06-27T06:56:17.224Z,18.90
2018-06-27T06:58:44.519Z,18.90
2018-06-27T07:01:11.655Z,18.90
2018-06-27T07:03:38.895Z,18.90
2018-06-27T07:06:12.758Z,19.00
2018-06-27T07:08:39.919Z,19.10
2018-06-27T07:11:07.178Z,19.20
2018-06-27T07:13:34.338Z,19.30
2018-06-27T07:16:01.501Z,19.40
2018-06-27T07:18:29.157Z,19.60
2018-06-27T07:20:56.332Z,20.00
2018-06-27T07:23:23.555Z,20.40
2018-06-27T07:25:50.729Z,20.70
2018-06-27T07:28:17.907Z,20.80
2018-06-27T07:30:45.076Z,20.90
2018-06-27T07:33:12.256Z,21.20
2018-06-27T07:35:39.683Z,21.80
2018-06-27T07:38:06.863Z,22.70
2018-06-27T07:40:34.055Z,23.40
2018-06-27T07:43:01.219Z,23.70
2018-06-27T07:45:28.371Z,24.10
2018-06-27T07:50:22.723Z,25.10
2018-06-27T07:52:49.893Z,25.70
2018-06-27T07:55:17.126Z,26.10
2018-06-27T07:57:44.236Z,26.50
2018-06-27T08:00:11.420Z,27.00
2018-06-27T08:02:38.641Z,26.80
2018-06-27T08:05:05.820Z,26.90
2018-06-27T08:07:33.055Z,26.70
2018-06-27T08:10:00.216Z,26.50
2018-06-27T08:12:27.454Z,26.40
2018-06-27T08:14:54.527Z,26.40
2018-06-27T08:17:21.725Z,26.50
2018-06-27T08:19:48.891Z,26.80
2018-06-27T08:22:16.064Z,27.00
2018-06-27T08:24:43.328Z,26.90
2018-06-27T08:27:10.670Z,26.40
2018-06-27T08:29:37.824Z,26.40
2018-06-27T08:32:05.091Z,26.70
2018-06-27T08:34:32.272Z,27.10
2018-06-27T08:36:59.411Z,27.60
2018-06-27T08:39:26.600Z,27.60
2018-06-27T08:41:53.739Z,27.10
2018-06-27T08:44:20.973Z,27.40
2018-06-27T08:46:48.077Z,27.60
2018-06-27T08:49:15.232Z,27.70
2018-06-27T08:51:42.416Z,27.60
2018-06-27T08:54:09.567Z,27.50
2018-06-27T08:56:36.725Z,27.80
2018-06-27T08:59:03.908Z,27.90
2018-06-27T09:01:31.105Z,27.90
2018-06-27T09:03:58.289Z,27.90
2018-06-27T09:06:25.472Z,28.10
2018-06-27T09:08:52.648Z,28.30
2018-06-27T09:11:19.923Z,28.60
2018-06-27T09:13:47.079Z,28.90
2018-06-27T09:16:14.224Z,29.00
2018-06-27T09:18:41.462Z,29.20
2018-06-27T09:21:08.579Z,29.50
2018-06-27T09:23:35.751Z,29.70
2018-06-27T09:26:02.928Z,30.00
2018-06-27T09:30:57.275Z,30.30
2018-06-27T09:33:24.457Z,30.50
2018-06-27T09:35:51.612Z,30.70
2018-06-27T09:38:18.786Z,30.80
2018-06-27T09:40:45.955Z,31.10
2018-06-27T09:43:13.129Z,31.50
2018-06-27T09:45:40.305Z,31.80
2018-06-27T09:48:07.498Z,32.10
2018-06-27T09:50:34.719Z,31.90
2018-06-27T09:53:01.893Z,32.00
2018-06-27T09:55:29.075Z,32.50
2018-06-27T09:57:56.225Z,32.90
2018-06-27T10:00:29.127Z,33.20
2018-06-27T10:02:56.336Z,33.00
2018-06-27T10:05:23.531Z,33.00
2018-06-27T10:07:50.690Z,33.20
2018-06-27T10:10:18.061Z,33.20
2018-06-27T10:12:45.227Z,33.10
2018-06-27T10:15:12.418Z,33.20
2018-06-27T10:17:39.569Z,33.20
2018-06-27T10:20:06.819Z,33.50
2018-06-27T10:22:33.992Z,33.80
2018-06-27T10:25:01.148Z,33.90
2018-06-27T10:27:28.299Z,33.80
2018-06-27T10:29:55.488Z,33.50
2018-06-27T10:32:22.660Z,33.20
2018-06-27T10:34:49.926Z,33.00
2018-06-27T10:37:17.021Z,33.30
2018-06-27T10:39:44.212Z,33.20
2018-06-27T10:42:11.383Z,32.90
2018-06-27T10:44:38.544Z,32.60
2018-06-27T10:47:05.727Z,32.80
2018-06-27T10:49:32.879Z,33.10
2018-06-27T10:52:00.046Z,33.20
2018-06-27T10:56:54.535Z,32.90
2018-06-27T10:59:21.687Z,32.50
2018-06-27T11:01:48.969Z,32.00
2018-06-27T11:04:16.124Z,31.20
2018-06-27T11:06:43.495Z,30.10
2018-06-27T11:09:10.683Z,29.40
2018-06-27T11:11:37.867Z,29.10
2018-06-27T11:14:05.106Z,28.80
2018-06-27T11:16:32.199Z,28.20
2018-06-27T11:18:59.360Z,27.80
2018-06-27T11:21:26.527Z,27.20
2018-06-27T11:23:53.672Z,27.80
2018-06-27T11:26:20.839Z,28.80
2018-06-27T11:28:48.011Z,28.90
2018-06-27T11:31:15.203Z,29.50
2018-06-27T11:33:42.343Z,30.50
2018-06-27T11:36:09.524Z,31.00
2018-06-27T11:38:36.720Z,31.20
2018-06-27T11:41:03.843Z,31.60
2018-06-27T11:43:31.032Z,31.60
2018-06-27T11:45:58.201Z,32.10
2018-06-27T11:48:25.615Z,32.20
2018-06-27T11:50:52.799Z,32.00
2018-06-27T11:53:19.982Z,31.90
2018-06-27T11:55:47.142Z,32.00
2018-06-27T11:58:14.335Z,32.20
2018-06-27T12:00:41.500Z,31.80
2018-06-27T12:03:08.676Z,31.60
2018-06-27T12:05:35.822Z,31.40
2018-06-27T12:08:03.003Z,31.40
2018-06-27T12:10:30.309Z,31.50
2018-06-27T12:12:57.579Z,31.60
2018-06-27T12:15:24.776Z,31.80
2018-06-27T12:20:19.147Z,32.00
2018-06-27T12:22:46.349Z,31.30
2018-06-27T12:25:13.535Z,30.90
2018-06-27T12:27:40.720Z,30.80
2018-06-27T12:30:15.431Z,30.80
2018-06-27T12:32:42.602Z,30.90
2018-06-27T12:35:09.773Z,31.00
2018-06-27T12:37:36.951Z,31.00
2018-06-27T12:40:04.179Z,30.90
2018-06-27T12:42:31.383Z,30.80
2018-06-27T12:44:58.522Z,30.90
2018-06-27T12:47:25.667Z,30.90
2018-06-27T12:49:52.892Z,30.90
2018-06-27T12:52:20.011Z,30.90
2018-06-27T12:54:47.311Z,30.90
2018-06-27T12:57:14.455Z,30.90
2018-06-27T12:59:41.718Z,31.10
2018-06-27T13:02:08.807Z,31.10
2018-06-27T13:04:36.072Z,31.20
2018-06-27T13:07:03.325Z,31.20
2018-06-27T13:09:30.528Z,31.00
2018-06-27T13:11:57.675Z,30.80
2018-06-27T13:14:24.885Z,30.60
2018-06-27T13:16:52.077Z,30.50
2018-06-27T13:19:19.265Z,30.60
2018-06-27T13:21:46.443Z,30.70
2018-06-27T13:24:13.607Z,30.80
2018-06-27T13:26:40.767Z,30.90
2018-06-27T13:31:35.114Z,30.70
2018-06-27T13:34:02.299Z,29.80
2018-06-27T13:36:29.483Z,29.30
2018-06-27T13:38:56.680Z,29.10
2018-06-27T13:41:23.880Z,29.60
2018-06-27T13:43:51.108Z,30.00
2018-06-27T13:46:18.303Z,30.20
2018-06-27T13:48:45.447Z,30.30
2018-06-27T13:51:12.620Z,30.00
2018-06-27T13:53:39.829Z,29.40
2018-06-27T13:56:07.020Z,29.40
2018-06-27T13:58:34.198Z,29.70
2018-06-27T14:01:01.376Z,30.00
2018-06-27T14:03:28.555Z,30.00
2018-06-27T14:06:02.713Z,30.00
2018-06-27T14:08:29.905Z,30.10
2018-06-27T14:10:57.071Z,30.00
2018-06-27T14:13:24.281Z,29.80
2018-06-27T14:15:51.543Z,29.10
2018-06-27T14:18:18.770Z,28.70
2018-06-27T14:20:45.936Z,28.60
2018-06-27T14:23:13.102Z,28.50
2018-06-27T14:25:40.268Z,28.70
2018-06-27T14:28:07.448Z,28.70
2018-06-27T14:30:34.633Z,28.80
2018-06-27T14:33:01.968Z,28.50
2018-06-27T14:35:29.078Z,28.20
2018-06-27T14:37:56.243Z,27.80
2018-06-27T14:40:23.433Z,27.60
2018-06-27T14:42:50.603Z,27.40
2018-06-27T14:45:17.766Z,27.50
2018-06-27T14:47:44.965Z,27.50
2018-06-27T14:50:12.156Z,27.80
2018-06-27T14:52:39.336Z,27.90
2018-06-27T14:55:08.224Z,27.70
2018-06-27T14:57:35.920Z,27.50
2018-06-27T15:00:04.601Z,27.40
2018-06-27T15:02:31.781Z,27.30
2018-06-27T15:04:58.967Z,27.40
2018-06-27T15:07:26.147Z,27.50
2018-06-27T15:09:53.308Z,27.40
2018-06-27T15:12:20.483Z,27.40
2018-06-27T15:14:47.643Z,27.30
2018-06-27T15:17:14.808Z,27.30
2018-06-27T15:19:41.996Z,27.30
2018-06-27T15:22:09.173Z,27.30
2018-06-27T15:24:36.407Z,27.30
2018-06-27T15:27:03.667Z,27.30
2018-06-27T15:29:30.811Z,27.20
2018-06-27T15:31:58.011Z,27.30
2018-06-27T15:34:25.198Z,27.30
2018-06-27T15:36:52.366Z,27.30
2018-06-27T15:39:19.545Z,27.20
2018-06-27T15:41:46.772Z,27.00
2018-06-27T15:44:13.965Z,26.90
2018-06-27T15:46:41.128Z,26.90
2018-06-27T15:49:09.225Z,27.00
2018-06-27T15:51:36.689Z,27.00
2018-06-27T15:54:03.879Z,27.00
2018-06-27T15:56:31.036Z,27.00
2018-06-27T15:58:58.229Z,27.10
2018-06-27T16:01:25.411Z,27.10
2018-06-27T16:03:52.639Z,26.90
2018-06-27T16:06:20.023Z,26.80
2018-06-27T16:08:47.215Z,26.90
2018-06-27T16:11:14.439Z,26.80
2018-06-27T16:13:41.584Z,26.80
2018-06-27T16:16:08.759Z,26.80
2018-06-27T16:18:35.900Z,26.80
2018-06-27T16:21:03.091Z,26.90
2018-06-27T16:23:30.247Z,26.90
2018-06-27T16:28:24.595Z,26.90
2018-06-27T16:30:51.779Z,26.70
2018-06-27T16:33:18.956Z,26.40
2018-06-27T16:35:46.124Z,26.30
2018-06-27T16:38:13.338Z,26.10
2018-06-27T16:40:40.589Z,26.00
2018-06-27T16:43:07.865Z,25.90
2018-06-27T16:45:34.935Z,25.70
2018-06-27T16:48:02.129Z,25.60
2018-06-27T16:50:29.316Z,25.50
2018-06-27T16:52:56.521Z,25.40
2018-06-27T16:55:23.691Z,25.40
2018-06-27T16:57:50.984Z,25.30
2018-06-27T17:00:18.179Z,25.20
2018-06-27T17:02:45.344Z,25.10
2018-06-27T17:05:12.577Z,25.10
2018-06-27T17:07:39.739Z,25.10
2018-06-27T17:10:06.909Z,25.20
2018-06-27T17:12:40.985Z,25.30
2018-06-27T17:15:08.168Z,25.30
2018-06-27T17:17:35.349Z,25.40
2018-06-27T17:20:02.560Z,25.30
2018-06-27T17:22:29.738Z,25.30
2018-06-27T17:24:56.895Z,25.30
2018-06-27T17:27:24.111Z,25.20
2018-06-27T17:29:51.268Z,25.20
2018-06-27T17:32:18.472Z,25.20
2018-06-27T17:34:45.635Z,25.10
2018-06-27T17:37:12.843Z,25.00
2018-06-27T17:39:40.039Z,25.00
2018-06-27T17:42:07.236Z,24.90
2018-06-27T17:44:34.467Z,24.80
2018-06-27T17:47:01.682Z,24.80
2018-06-27T17:49:28.872Z,24.70
2018-06-27T17:51:56.077Z,24.60
2018-06-27T17:54:23.229Z,24.60
2018-06-27T17:56:50.439Z,24.50
2018-06-27T17:59:17.699Z,24.50
2018-06-27T18:01:44.905Z,24.40
2018-06-27T18:04:12.106Z,24.40
2018-06-27T18:06:39.272Z,24.40
2018-06-27T18:09:07.995Z,24.40
2018-06-27T18:11:35.176Z,24.40
2018-06-27T18:14:02.920Z,24.50
2018-06-27T18:16:30.071Z,24.50
2018-06-27T18:18:57.248Z,24.50
2018-06-27T18:21:24.555Z,24.50
2018-06-27T18:23:51.807Z,24.50
2018-06-27T18:26:19.031Z,24.40
2018-06-27T18:28:46.191Z,24.40
2018-06-27T18:31:13.359Z,24.30
2018-06-27T18:33:40.571Z,24.30
2018-06-27T18:36:07.735Z,24.30
2018-06-27T18:38:34.927Z,24.20
2018-06-27T18:41:02.116Z,24.20
2018-06-27T18:43:29.317Z,24.00
2018-06-27T18:45:56.487Z,23.90
2018-06-27T18:48:23.697Z,23.90
2018-06-27T18:50:50.861Z,23.90
2018-06-27T18:53:18.011Z,24.00
2018-06-27T18:55:45.183Z,23.90
2018-06-27T18:58:12.347Z,23.90
2018-06-27T19:00:39.532Z,23.80
2018-06-27T19:03:06.731Z,23.70
2018-06-27T19:05:33.924Z,23.70
2018-06-27T19:08:01.092Z,23.60
2018-06-27T19:10:28.294Z,23.50
2018-06-27T19:12:55.464Z,23.50
2018-06-27T19:15:22.634Z,23.40
2018-06-27T19:17:49.890Z,23.30
2018-06-27T19:20:17.201Z,23.30
2018-06-27T19:22:44.432Z,23.20
2018-06-27T19:25:11.625Z,23.10
2018-06-27T19:27:38.807Z,23.00
2018-06-27T19:30:06.327Z,22.90
2018-06-27T19:35:00.895Z,22.80
2018-06-27T19:37:28.076Z,22.80
2018-06-27T19:39:55.247Z,22.70
2018-06-27T19:42:22.544Z,22.70
2018-06-27T19:44:49.706Z,22.60
2018-06-27T19:49:44.103Z,22.50
2018-06-27T19:52:11.299Z,22.50
2018-06-27T19:54:38.465Z,22.40
2018-06-27T19:57:05.671Z,22.40
2018-06-27T19:59:32.875Z,22.30
2018-06-27T20:02:00.097Z,22.30
2018-06-27T20:04:27.219Z,22.30
2018-06-27T20:06:54.442Z,22.20
2018-06-27T20:09:21.552Z,22.20
2018-06-27T20:11:48.729Z,22.10
2018-06-27T20:14:15.919Z,22.00
2018-06-27T20:16:43.079Z,22.00
2018-06-27T20:19:10.488Z,21.90
2018-06-27T20:21:37.699Z,21.90
2018-06-27T20:24:04.892Z,21.80
2018-06-27T20:26:32.081Z,21.80
2018-06-27T20:31:33.292Z,21.70
2018-06-27T20:34:00.517Z,21.70
2018-06-27T20:41:28.780Z,21.40
2018-06-27T20:43:55.961Z,21.40
2018-06-27T20:46:23.141Z,21.40
2018-06-27T20:48:50.306Z,21.30
2018-06-27T20:51:17.488Z,21.30
2018-06-27T20:53:44.831Z,21.40
2018-06-27T20:56:11.996Z,21.40
2018-06-27T20:58:39.172Z,21.30
2018-06-27T21:01:06.331Z,21.30
2018-06-27T21:03:33.516Z,21.20
2018-06-27T21:06:00.716Z,21.20
2018-06-27T21:08:27.871Z,21.10
2018-06-27T21:10:55.030Z,21.10
2018-06-27T21:13:22.208Z,21.10
2018-06-27T21:15:49.375Z,21.10
2018-06-27T21:18:16.553Z,21.00
2018-06-27T21:20:43.769Z,21.00
2018-06-27T21:23:10.943Z,21.00
2018-06-27T21:25:38.105Z,20.90
2018-06-27T21:28:05.303Z,20.90
2018-06-27T21:30:32.476Z,20.80
2018-06-27T21:32:59.639Z,20.80
2018-06-27T21:35:26.829Z,20.80
2018-06-27T21:37:53.987Z,20.70
2018-06-27T21:40:21.139Z,20.80
2018-06-27T21:42:48.379Z,20.80
2018-06-27T21:45:15.584Z,20.70
2018-06-27T21:47:42.765Z,20.70
2018-06-27T21:50:10.068Z,20.80
2018-06-27T21:52:37.295Z,20.70
2018-06-27T21:55:05.196Z,20.70
2018-06-27T21:57:32.343Z,20.70
2018-06-27T21:59:59.500Z,20.60
2018-06-27T22:02:26.665Z,20.60
2018-06-27T22:04:53.818Z,20.60
2018-06-27T22:07:20.992Z,20.50
2018-06-27T22:09:48.164Z,20.50
2018-06-27T22:12:15.327Z,20.50
2018-06-27T22:14:42.510Z,20.50
2018-06-27T22:17:09.705Z,20.50
2018-06-27T22:19:36.893Z,20.60
2018-06-27T22:22:04.072Z,20.60
2018-06-27T22:24:31.267Z,20.60
2018-06-27T22:26:58.612Z,20.40
2018-06-27T22:29:25.774Z,20.40
2018-06-27T22:31:52.999Z,20.40
2018-06-27T22:34:20.152Z,20.40
2018-06-27T22:36:47.351Z,20.40
2018-06-27T22:39:14.525Z,20.30
2018-06-27T22:41:41.716Z,20.20
2018-06-27T22:44:08.917Z,20.10
2018-06-27T22:46:36.530Z,20.00
2018-06-27T22:49:03.899Z,20.00
2018-06-27T22:51:31.107Z,19.90
2018-06-27T22:53:58.304Z,19.70
2018-06-27T22:56:25.459Z,19.70
2018-06-27T22:58:52.633Z,19.50
2018-06-27T23:01:19.811Z,19.30
2018-06-27T23:03:46.975Z,19.20
2018-06-27T23:06:14.181Z,19.30
2018-06-27T23:08:41.587Z,19.20
2018-06-27T23:13:43.060Z,19.10
2018-06-27T23:16:10.239Z,19.00
2018-06-27T23:18:37.403Z,19.00
2018-06-27T23:21:04.584Z,19.10
2018-06-27T23:23:31.797Z,19.00
2018-06-27T23:25:58.964Z,18.90
2018-06-27T23:28:26.121Z,18.90
2018-06-27T23:30:53.283Z,19.10
2018-06-27T23:35:47.645Z,18.90
2018-06-27T23:38:14.843Z,19.00
2018-06-27T23:40:42.007Z,19.00
2018-06-27T23:43:09.204Z,18.80
2018-06-27T23:45:36.380Z,18.80
2018-06-27T23:48:03.585Z,18.80
2018-06-27T23:50:30.760Z,18.70
2018-06-27T23:52:57.940Z,18.70
2018-06-27T23:55:25.121Z,18.50
2018-06-27T23:57:52.321Z,18.50
